Time;durP1;ratioP1;P1;durP2;ratioP2;P2;SDS_P1;SDS_P2;PMS_P1;PMS_P2;Temp;Humidity;BMP_temperature;BMP_pressure;BME280_temperature;BME280_humidity;BME280_pressure;Samples;Min_cycle;Max_cycle;Signal;HPM_P1;HPM_P2
2022/03/07 00:00:57;;;;;;;8.63;6.03;;;;;;;;;;5026142;28;20244;-68
2022/03/07 00:03:24;;;;;;;9.43;5.47;;;;;;;;;;5030474;28;20182;-66
2022/03/07 00:05:50;;;;;;;8.83;5.93;;;;;;;;;;5034984;28;20233;-68
2022/03/07 00:08:15;;;;;;;10.80;6.30;;;;;;;;;;5032667;28;20263;-67
2022/03/07 00:10:40;;;;;;;10.33;5.70;;;;;;;;;;5030370;28;20178;-67
2022/03/07 00:13:06;;;;;;;9.43;5.90;;;;;;;;;;5026558;28;20217;-67
2022/03/07 00:15:31;;;;;;;8.83;5.63;;;;;;;;;;5024993;28;20186;-67
2022/03/07 00:17:57;;;;;;;10.70;5.77;;;;;;;;;;5026213;28;20304;-67
2022/03/07 00:20:22;;;;;;;12.57;6.20;;;;;;;;;;5027951;28;20183;-67
2022/03/07 00:22:47;;;;;;;10.03;5.90;;;;;;;;;;5028646;28;20186;-67
2022/03/07 00:25:16;;;;;;;14.87;6.73;;;;;;;;;;5025598;28;20194;-68
2022/03/07 00:27:41;;;;;;;10.57;5.90;;;;;;;;;;5030882;28;20194;-68
2022/03/07 00:30:07;;;;;;;10.63;6.20;;;;;;;;;;5023960;28;20197;-67
2022/03/07 00:32:33;;;;;;;15.87;6.30;;;;;;;;;;5026223;28;20186;-68
2022/03/07 00:34:58;;;;;;;11.67;6.30;;;;;;;;;;5023611;28;20186;-66
2022/03/07 00:37:23;;;;;;;12.17;6.30;;;;;;;;;;5024571;28;20284;-67
2022/03/07 00:39:49;;;;;;;9.33;5.80;;;;;;;;;;5025091;28;20196;-67
2022/03/07 00:42:14;;;;;;;12.43;7.10;;;;;;;;;;5024051;28;20201;-66
2022/03/07 00:44:40;;;;;;;10.73;5.97;;;;;;;;;;5022842;28;20186;-67
2022/03/07 00:47:05;;;;;;;12.73;6.30;;;;;;;;;;5029826;28;20194;-67
2022/03/07 00:49:30;;;;;;;12.60;6.00;;;;;;;;;;5023735;28;20210;-67
2022/03/07 00:51:59;;;;;;;11.73;6.43;;;;;;;;;;5031448;28;20927;-67
2022/03/07 00:54:24;;;;;;;13.17;6.50;;;;;;;;;;5025903;28;20186;-67
2022/03/07 00:56:49;;;;;;;13.63;6.60;;;;;;;;;;5034268;28;20189;-67
2022/03/07 00:59:15;;;;;;;11.77;6.13;;;;;;;;;;5024089;28;20190;-67
2022/03/07 01:01:40;;;;;;;13.40;7.20;;;;;;;;;;5029006;28;20823;-67
2022/03/07 01:04:06;;;;;;;15.77;7.20;;;;;;;;;;5022585;28;20190;-67
2022/03/07 01:06:31;;;;;;;14.67;7.27;;;;;;;;;;5029151;28;20684;-66
2022/03/07 01:08:56;;;;;;;11.40;6.43;;;;;;;;;;5024920;28;20182;-67
2022/03/07 01:11:22;;;;;;;15.23;6.13;;;;;;;;;;5028510;28;20182;-67
2022/03/07 01:13:47;;;;;;;13.60;6.80;;;;;;;;;;5026316;28;20281;-67
2022/03/07 01:16:12;;;;;;;15.27;6.57;;;;;;;;;;5030973;28;20186;-67
2022/03/07 01:18:38;;;;;;;13.00;6.87;;;;;;;;;;5026348;28;20265;-68
2022/03/07 01:21:03;;;;;;;13.33;6.57;;;;;;;;;;5041073;28;20287;-67
2022/03/07 01:23:29;;;;;;;15.53;7.53;;;;;;;;;;5026088;28;20219;-67
2022/03/07 01:25:54;;;;;;;14.33;7.23;;;;;;;;;;5029369;28;20186;-67
2022/03/07 01:28:20;;;;;;;13.03;6.53;;;;;;;;;;5020868;28;20206;-68
2022/03/07 01:30:47;;;;;;;11.83;6.03;;;;;;;;;;5025176;28;20237;-67
2022/03/07 01:33:12;;;;;;;11.43;5.70;;;;;;;;;;5024605;28;20194;-66
2022/03/07 01:35:38;;;;;;;13.00;6.53;;;;;;;;;;5023238;28;20273;-66
2022/03/07 01:38:03;;;;;;;12.70;6.67;;;;;;;;;;5023105;28;20227;-67
2022/03/07 01:40:29;;;;;;;12.63;7.20;;;;;;;;;;5026245;28;20181;-67
2022/03/07 01:42:54;;;;;;;11.73;6.57;;;;;;;;;;5023867;28;20194;-67
2022/03/07 01:45:20;;;;;;;13.17;7.40;;;;;;;;;;5027603;28;20191;-66
2022/03/07 01:47:46;;;;;;;13.30;7.07;;;;;;;;;;5023638;28;20348;-66
2022/03/07 01:50:13;;;;;;;13.50;6.50;;;;;;;;;;5024658;28;20431;-66
2022/03/07 01:52:41;;;;;;;11.00;6.00;;;;;;;;;;5022942;28;20186;-66
2022/03/07 01:55:08;;;;;;;13.17;6.57;;;;;;;;;;5024792;28;20225;-66
2022/03/07 01:57:41;;;;;;;17.40;6.93;;;;;;;;;;5025243;28;20324;-66
2022/03/07 02:00:11;;;;;;;11.93;7.03;;;;;;;;;;5024021;28;20189;-66
2022/03/07 02:02:36;;;;;;;12.33;6.77;;;;;;;;;;5023674;28;20264;-67
2022/03/07 02:05:03;;;;;;;13.07;6.40;;;;;;;;;;5025762;28;20357;-67
2022/03/07 02:07:29;;;;;;;11.67;7.37;;;;;;;;;;5023169;28;20197;-67
2022/03/07 02:09:54;;;;;;;16.57;7.30;;;;;;;;;;5032632;28;20634;-67
2022/03/07 02:12:20;;;;;;;11.53;6.80;;;;;;;;;;5017713;28;20205;-67
2022/03/07 02:14:45;;;;;;;13.87;6.87;;;;;;;;;;5024708;28;20232;-67
2022/03/07 02:17:10;;;;;;;12.37;6.83;;;;;;;;;;5023664;28;20514;-65
2022/03/07 02:19:36;;;;;;;14.50;6.77;;;;;;;;;;5026179;28;20270;-66
2022/03/07 02:22:03;;;;;;;15.90;7.10;;;;;;;;;;5025372;28;20710;-67
2022/03/07 02:24:28;;;;;;;14.97;6.37;;;;;;;;;;5019947;28;20240;-66
2022/03/07 02:27:03;;;;;;;13.90;6.67;;;;;;;;;;5024682;28;20186;-66
2022/03/07 02:29:29;;;;;;;12.90;6.40;;;;;;;;;;5021021;28;20193;-66
2022/03/07 02:31:55;;;;;;;15.03;7.63;;;;;;;;;;5026498;28;20209;-66
2022/03/07 02:34:20;;;;;;;15.93;6.87;;;;;;;;;;5020175;28;20497;-66
2022/03/07 02:36:46;;;;;;;16.27;7.03;;;;;;;;;;5022280;28;20208;-67
2022/03/07 02:39:12;;;;;;;11.77;6.73;;;;;;;;;;5020952;28;20240;-66
2022/03/07 02:41:38;;;;;;;14.50;7.30;;;;;;;;;;5025321;28;20185;-67
2022/03/07 02:44:04;;;;;;;12.37;6.50;;;;;;;;;;5021810;28;20257;-67
2022/03/07 02:46:30;;;;;;;14.67;6.63;;;;;;;;;;5027803;28;20569;-66
2022/03/07 02:48:55;;;;;;;13.80;7.33;;;;;;;;;;5020160;28;20465;-67
2022/03/07 02:51:20;;;;;;;19.17;7.40;;;;;;;;;;5029740;28;20182;-67
2022/03/07 02:53:46;;;;;;;14.30;6.73;;;;;;;;;;5022187;28;20189;-67
2022/03/07 02:56:11;;;;;;;15.00;6.70;;;;;;;;;;5029422;28;20185;-67
2022/03/07 02:58:37;;;;;;;11.27;6.77;;;;;;;;;;5021061;28;20247;-67
2022/03/07 03:01:02;;;;;;;15.57;6.73;;;;;;;;;;5023890;28;20186;-67
2022/03/07 03:03:28;;;;;;;15.73;7.30;;;;;;;;;;5023748;28;20181;-67
2022/03/07 03:05:54;;;;;;;15.93;7.47;;;;;;;;;;5031333;28;20241;-67
2022/03/07 03:08:23;;;;;;;15.03;7.27;;;;;;;;;;5021174;28;20178;-67
2022/03/07 03:10:52;;;;;;;15.53;7.33;;;;;;;;;;5022957;28;20174;-67
2022/03/07 03:13:20;;;;;;;15.60;7.17;;;;;;;;;;5020823;28;20202;-67
2022/03/07 03:15:46;;;;;;;15.43;7.43;;;;;;;;;;5020122;28;20340;-67
2022/03/07 03:18:12;;;;;;;16.70;7.00;;;;;;;;;;5020945;28;20567;-67
2022/03/07 03:20:38;;;;;;;19.30;8.07;;;;;;;;;;5025165;28;20182;-67
2022/03/07 03:23:03;;;;;;;16.03;7.20;;;;;;;;;;5022465;28;20208;-66
2022/03/07 03:25:28;;;;;;;15.57;7.80;;;;;;;;;;5021962;28;20660;-66
2022/03/07 03:27:54;;;;;;;20.00;7.07;;;;;;;;;;5017856;28;20186;-66
2022/03/07 03:30:19;;;;;;;19.60;7.40;;;;;;;;;;5023600;28;20287;-66
2022/03/07 03:32:44;;;;;;;12.20;6.93;;;;;;;;;;5021601;28;20610;-66
2022/03/07 03:35:10;;;;;;;16.13;7.50;;;;;;;;;;5020032;28;20182;-66
2022/03/07 03:37:36;;;;;;;15.03;7.43;;;;;;;;;;5023162;28;20308;-66
2022/03/07 03:40:04;;;;;;;16.77;7.17;;;;;;;;;;5020936;28;20188;-66
2022/03/07 03:42:29;;;;;;;15.40;7.53;;;;;;;;;;5024398;28;20178;-66
2022/03/07 03:44:54;;;;;;;17.30;7.27;;;;;;;;;;5021119;28;20506;-66
2022/03/07 03:47:20;;;;;;;16.03;7.00;;;;;;;;;;5019036;28;20727;-66
2022/03/07 03:49:45;;;;;;;13.37;6.73;;;;;;;;;;5023762;28;20237;-66
2022/03/07 03:52:10;;;;;;;13.10;6.70;;;;;;;;;;5018723;28;20460;-66
2022/03/07 03:54:36;;;;;;;12.13;5.77;;;;;;;;;;5023704;28;20183;-67
2022/03/07 03:57:02;;;;;;;12.07;6.70;;;;;;;;;;5022550;28;20593;-66
2022/03/07 03:59:27;;;;;;;13.33;6.47;;;;;;;;;;5022339;28;20531;-67
2022/03/07 04:01:53;;;;;;;17.23;6.90;;;;;;;;;;5019615;28;20202;-66
2022/03/07 04:04:18;;;;;;;14.77;7.00;;;;;;;;;;5021770;28;20197;-67
2022/03/07 04:06:44;;;;;;;13.00;6.57;;;;;;;;;;5022280;28;20269;-67
2022/03/07 04:09:17;;;;;;;16.63;6.90;;;;;;;;;;5026022;28;20186;-67
2022/03/07 04:11:42;;;;;;;13.50;7.20;;;;;;;;;;5016815;28;20494;-67
2022/03/07 04:14:08;;;;;;;14.60;6.83;;;;;;;;;;5016280;28;20193;-67
2022/03/07 04:16:35;;;;;;;16.93;6.27;;;;;;;;;;5019282;28;20473;-67
2022/03/07 04:19:01;;;;;;;13.43;5.30;;;;;;;;;;5021182;28;20222;-68
2022/03/07 04:21:26;;;;;;;12.43;6.23;;;;;;;;;;5016344;28;20264;-71
2022/03/07 04:23:53;;;;;;;15.07;6.87;;;;;;;;;;5025510;28;20181;-68
2022/03/07 04:26:18;;;;;;;13.33;6.10;;;;;;;;;;5017037;28;20624;-68
2022/03/07 04:28:44;;;;;;;17.17;6.17;;;;;;;;;;5023627;28;20182;-67
2022/03/07 04:31:09;;;;;;;16.77;7.13;;;;;;;;;;5016254;28;20293;-67
2022/03/07 04:33:37;;;;;;;14.53;6.27;;;;;;;;;;5024558;28;20498;-68
2022/03/07 04:36:03;;;;;;;21.50;7.10;;;;;;;;;;5023661;28;20663;-68
2022/03/07 04:38:29;;;;;;;17.27;6.60;;;;;;;;;;5024381;28;20320;-68
2022/03/07 04:40:54;;;;;;;14.23;5.90;;;;;;;;;;5023405;28;20197;-67
2022/03/07 04:43:20;;;;;;;15.93;7.17;;;;;;;;;;5025395;28;20687;-68
2022/03/07 04:45:45;;;;;;;19.67;7.03;;;;;;;;;;5028013;28;20248;-67
2022/03/07 04:48:11;;;;;;;15.17;7.20;;;;;;;;;;5025211;28;20711;-68
2022/03/07 04:50:36;;;;;;;15.70;6.70;;;;;;;;;;5026255;28;20274;-68
2022/03/07 04:53:02;;;;;;;12.07;6.10;;;;;;;;;;5027234;28;20193;-66
2022/03/07 04:55:27;;;;;;;13.97;6.37;;;;;;;;;;5030098;28;20192;-67
2022/03/07 04:57:53;;;;;;;14.47;7.13;;;;;;;;;;5024664;28;20205;-68
2022/03/07 05:00:18;;;;;;;17.10;6.73;;;;;;;;;;5026692;28;20190;-67
2022/03/07 05:02:44;;;;;;;16.87;6.47;;;;;;;;;;5023424;28;20213;-67
2022/03/07 05:05:09;;;;;;;15.00;7.03;;;;;;;;;;5020707;28;20219;-68
2022/03/07 05:07:35;;;;;;;11.37;5.97;;;;;;;;;;5022345;28;20194;-67
2022/03/07 05:10:01;;;;;;;22.50;7.53;;;;;;;;;;5033079;28;20193;-67
2022/03/07 05:12:26;;;;;;;18.13;8.20;;;;;;;;;;5024064;28;20183;-68
2022/03/07 05:14:51;;;;;;;16.97;7.93;;;;;;;;;;5038185;28;20521;-67
2022/03/07 05:17:17;;;;;;;22.47;7.87;;;;;;;;;;5024259;28;20707;-68
2022/03/07 05:19:43;;;;;;;17.97;8.23;;;;;;;;;;5027770;28;20234;-68
2022/03/07 05:22:09;;;;;;;17.00;8.60;;;;;;;;;;5025195;28;20199;-68
2022/03/07 05:24:34;;;;;;;20.30;9.77;;;;;;;;;;5026706;28;20174;-66
2022/03/07 05:27:00;;;;;;;19.33;9.30;;;;;;;;;;5023555;28;20276;-68
2022/03/07 05:29:25;;;;;;;22.00;10.63;;;;;;;;;;5034730;28;20617;-68
2022/03/07 05:31:51;;;;;;;21.17;10.07;;;;;;;;;;5028711;28;20233;-68
2022/03/07 05:34:16;;;;;;;21.37;8.90;;;;;;;;;;5036252;28;20708;-68
2022/03/07 05:36:42;;;;;;;18.50;9.30;;;;;;;;;;5023925;28;20186;-68
2022/03/07 05:39:07;;;;;;;19.97;10.10;;;;;;;;;;5023257;28;21320;-66
2022/03/07 05:41:32;;;;;;;24.40;10.10;;;;;;;;;;5021915;28;20221;-67
2022/03/07 05:43:58;;;;;;;23.03;8.77;;;;;;;;;;5025031;28;20549;-67
2022/03/07 05:46:23;;;;;;;20.43;9.73;;;;;;;;;;5024121;28;20194;-68
2022/03/07 05:48:48;;;;;;;20.93;9.97;;;;;;;;;;5030385;28;20225;-67
2022/03/07 05:51:20;;;;;;;23.73;10.57;;;;;;;;;;5023611;28;20210;-67
2022/03/07 05:53:46;;;;;;;23.83;9.80;;;;;;;;;;5023844;28;20467;-67
2022/03/07 05:56:11;;;;;;;22.13;11.03;;;;;;;;;;5022340;28;20181;-68
2022/03/07 05:58:37;;;;;;;19.87;10.20;;;;;;;;;;5025483;28;20263;-68
2022/03/07 06:01:02;;;;;;;20.73;10.73;;;;;;;;;;5022582;28;20284;-67
2022/03/07 06:03:27;;;;;;;20.83;9.77;;;;;;;;;;5016830;28;20182;-67
2022/03/07 06:05:53;;;;;;;24.30;11.00;;;;;;;;;;5020671;28;20230;-67
2022/03/07 06:08:18;;;;;;;24.30;11.53;;;;;;;;;;5029900;28;20181;-68
2022/03/07 06:10:43;;;;;;;21.43;10.67;;;;;;;;;;5030015;28;20228;-69
2022/03/07 06:13:09;;;;;;;21.53;10.90;;;;;;;;;;5023230;28;20303;-68
2022/03/07 06:15:35;;;;;;;20.90;10.27;;;;;;;;;;5026529;28;20204;-68
2022/03/07 06:18:02;;;;;;;26.10;10.50;;;;;;;;;;5027878;28;20230;-68
2022/03/07 06:20:28;;;;;;;20.67;10.00;;;;;;;;;;5020182;28;20209;-67
2022/03/07 06:22:54;;;;;;;21.13;9.10;;;;;;;;;;5032629;28;20190;-68
2022/03/07 06:25:20;;;;;;;22.60;10.53;;;;;;;;;;5020773;28;20194;-68
2022/03/07 06:27:46;;;;;;;23.93;10.80;;;;;;;;;;5023279;28;20182;-67
2022/03/07 06:30:11;;;;;;;21.87;10.30;;;;;;;;;;5018104;28;20261;-66
2022/03/07 06:32:38;;;;;;;24.97;10.77;;;;;;;;;;5024285;28;20309;-68
2022/03/07 06:35:05;;;;;;;18.93;10.30;;;;;;;;;;5022734;28;20182;-68
2022/03/07 06:37:30;;;;;;;23.57;9.83;;;;;;;;;;5035323;28;21567;-68
2022/03/07 06:39:56;;;;;;;19.93;9.63;;;;;;;;;;5026726;28;20200;-68
2022/03/07 06:42:22;;;;;;;27.43;10.17;;;;;;;;;;5017802;28;20213;-68
2022/03/07 06:44:47;;;;;;;18.30;9.47;;;;;;;;;;5032864;28;20212;-68
2022/03/07 06:47:13;;;;;;;17.80;9.60;;;;;;;;;;5022335;28;20197;-67
2022/03/07 06:49:40;;;;;;;20.93;9.50;;;;;;;;;;5022793;28;20200;-68
2022/03/07 06:52:06;;;;;;;18.70;9.53;;;;;;;;;;5025076;28;20263;-67
2022/03/07 06:54:31;;;;;;;19.77;10.27;;;;;;;;;;5022603;28;20186;-68
2022/03/07 06:56:57;;;;;;;25.67;10.60;;;;;;;;;;5027773;28;20190;-68
2022/03/07 06:59:22;;;;;;;25.10;10.63;;;;;;;;;;5027516;28;20313;-67
2022/03/07 07:01:47;;;;;;;22.33;11.10;;;;;;;;;;5017895;28;20736;-68
2022/03/07 07:04:13;;;;;;;23.43;9.93;;;;;;;;;;5022075;28;20189;-68
2022/03/07 07:06:38;;;;;;;17.87;9.73;;;;;;;;;;5027347;28;20587;-68
2022/03/07 07:09:04;;;;;;;17.10;9.07;;;;;;;;;;5027182;28;20720;-68
2022/03/07 07:11:29;;;;;;;21.67;10.73;;;;;;;;;;5020690;28;20561;-68
2022/03/07 07:13:54;;;;;;;20.77;9.73;;;;;;;;;;5022679;28;20178;-67
2022/03/07 07:16:20;;;;;;;22.67;10.67;;;;;;;;;;5019890;28;20208;-68
2022/03/07 07:18:45;;;;;;;28.03;11.37;;;;;;;;;;5026964;28;20202;-68
2022/03/07 07:21:11;;;;;;;20.03;10.73;;;;;;;;;;5021513;28;20299;-67
2022/03/07 07:23:37;;;;;;;21.00;10.40;;;;;;;;;;5023488;28;20566;-67
2022/03/07 07:26:03;;;;;;;23.10;11.20;;;;;;;;;;5026502;28;20261;-67
2022/03/07 07:28:29;;;;;;;25.53;11.60;;;;;;;;;;5034474;28;20661;-68
2022/03/07 07:30:54;;;;;;;24.57;11.00;;;;;;;;;;5023903;28;20206;-68
2022/03/07 07:33:20;;;;;;;25.37;12.37;;;;;;;;;;5026345;28;20609;-68
2022/03/07 07:35:45;;;;;;;29.33;11.80;;;;;;;;;;5025880;28;20237;-68
2022/03/07 07:38:11;;;;;;;29.20;13.00;;;;;;;;;;5028923;28;20210;-68
2022/03/07 07:40:36;;;;;;;28.00;14.00;;;;;;;;;;5030517;28;20178;-67
2022/03/07 07:43:01;;;;;;;31.10;14.43;;;;;;;;;;5026430;28;20265;-67
2022/03/07 07:45:27;;;;;;;33.87;16.13;;;;;;;;;;5021657;28;20190;-67
2022/03/07 07:47:52;;;;;;;36.87;16.60;;;;;;;;;;5022848;28;20186;-67
2022/03/07 07:50:19;;;;;;;32.97;17.27;;;;;;;;;;5021608;28;20196;-67
2022/03/07 07:52:44;;;;;;;39.70;18.70;;;;;;;;;;5018673;28;20735;-68
2022/03/07 07:55:09;;;;;;;33.67;18.17;;;;;;;;;;5031889;28;20185;-67
2022/03/07 07:57:35;;;;;;;36.17;18.23;;;;;;;;;;5029497;28;20312;-67
2022/03/07 08:00:00;;;;;;;33.90;18.80;;;;;;;;;;5032342;28;20213;-67
2022/03/07 08:02:26;;;;;;;35.00;18.03;;;;;;;;;;5024071;28;20470;-67
2022/03/07 08:04:54;;;;;;;45.90;19.23;;;;;;;;;;5036334;28;20280;-67
2022/03/07 08:07:19;;;;;;;34.60;18.70;;;;;;;;;;5024180;28;20202;-68
2022/03/07 08:09:45;;;;;;;38.47;18.07;;;;;;;;;;5042649;28;20239;-68
2022/03/07 08:12:10;;;;;;;32.90;17.60;;;;;;;;;;5026256;28;20209;-68
2022/03/07 08:14:36;;;;;;;34.97;18.17;;;;;;;;;;5040296;28;20186;-68
2022/03/07 08:17:04;;;;;;;31.00;17.43;;;;;;;;;;5024806;28;20214;-68
2022/03/07 08:19:30;;;;;;;30.03;16.70;;;;;;;;;;5034662;28;20269;-68
2022/03/07 08:21:55;;;;;;;29.80;15.77;;;;;;;;;;5029230;28;20265;-68
2022/03/07 08:24:20;;;;;;;28.63;15.13;;;;;;;;;;5033274;28;20642;-68
2022/03/07 08:26:46;;;;;;;32.63;15.97;;;;;;;;;;5035624;28;20209;-68
2022/03/07 08:29:12;;;;;;;33.40;15.60;;;;;;;;;;5033045;28;20695;-68
2022/03/07 08:31:37;;;;;;;27.00;15.33;;;;;;;;;;5032389;28;20209;-68
2022/03/07 08:34:02;;;;;;;28.23;15.27;;;;;;;;;;5032997;28;20209;-68
2022/03/07 08:36:30;;;;;;;27.37;14.40;;;;;;;;;;5035492;28;20299;-68
2022/03/07 08:38:56;;;;;;;24.20;14.37;;;;;;;;;;5034516;28;20544;-68
2022/03/07 08:41:21;;;;;;;23.33;13.20;;;;;;;;;;5028620;28;20193;-68
2022/03/07 08:43:49;;;;;;;22.03;12.13;;;;;;;;;;5030107;28;20193;-68
2022/03/07 08:46:14;;;;;;;22.20;13.63;;;;;;;;;;5023809;28;20384;-68
2022/03/07 08:48:40;;;;;;;22.40;12.87;;;;;;;;;;5028491;28;20269;-68
2022/03/07 08:51:05;;;;;;;19.60;12.73;;;;;;;;;;5039885;28;20214;-68
2022/03/07 08:53:31;;;;;;;26.30;13.20;;;;;;;;;;5028434;28;20194;-68
2022/03/07 08:55:56;;;;;;;22.10;12.50;;;;;;;;;;5040536;28;20184;-68
2022/03/07 08:58:22;;;;;;;20.67;11.80;;;;;;;;;;5028622;28;20238;-67
2022/03/07 09:00:47;;;;;;;20.30;11.73;;;;;;;;;;5042708;28;20633;-67
2022/03/07 09:03:12;;;;;;;19.60;11.40;;;;;;;;;;5028869;28;20186;-68
2022/03/07 09:05:38;;;;;;;19.83;11.50;;;;;;;;;;5040449;28;20287;-67
2022/03/07 09:08:03;;;;;;;15.37;9.77;;;;;;;;;;5031721;28;20262;-67
2022/03/07 09:10:29;;;;;;;17.60;11.30;;;;;;;;;;5030178;28;20202;-68
2022/03/07 09:12:54;;;;;;;17.17;10.27;;;;;;;;;;5024230;28;20692;-68
2022/03/07 09:15:20;;;;;;;15.87;9.53;;;;;;;;;;5027471;28;20182;-68
2022/03/07 09:17:45;;;;;;;15.50;8.23;;;;;;;;;;5033960;28;20201;-68
2022/03/07 09:20:13;;;;;;;15.87;8.20;;;;;;;;;;5033433;28;20186;-68
2022/03/07 09:22:39;;;;;;;14.70;8.20;;;;;;;;;;5033568;28;20193;-68
2022/03/07 09:25:05;;;;;;;15.63;8.13;;;;;;;;;;5034282;28;20403;-70
2022/03/07 09:27:30;;;;;;;14.00;8.67;;;;;;;;;;5032226;28;20644;-68
2022/03/07 09:29:56;;;;;;;12.37;7.00;;;;;;;;;;5032528;28;20186;-68
2022/03/07 09:32:21;;;;;;;14.63;7.20;;;;;;;;;;5033530;28;20597;-68
2022/03/07 09:34:47;;;;;;;12.50;6.00;;;;;;;;;;5029564;28;20280;-68
2022/03/07 09:37:12;;;;;;;10.67;6.03;;;;;;;;;;5036536;28;20185;-68
2022/03/07 09:39:38;;;;;;;10.63;6.90;;;;;;;;;;5027630;28;20246;-68
2022/03/07 09:42:05;;;;;;;11.70;6.60;;;;;;;;;;5038631;28;20192;-68
2022/03/07 09:44:33;;;;;;;13.03;7.30;;;;;;;;;;5022965;28;20225;-67
2022/03/07 09:47:00;;;;;;;14.00;7.57;;;;;;;;;;5032435;28;20196;-68
2022/03/07 09:49:25;;;;;;;13.43;7.73;;;;;;;;;;5029538;28;20218;-68
2022/03/07 09:51:52;;;;;;;8.50;5.70;;;;;;;;;;5038828;28;20645;-68
2022/03/07 09:54:18;;;;;;;12.73;7.27;;;;;;;;;;5032375;28;20271;-68
2022/03/07 09:56:43;;;;;;;11.37;7.33;;;;;;;;;;5036943;28;20194;-68
2022/03/07 09:59:09;;;;;;;12.53;6.97;;;;;;;;;;5034559;28;20205;-69
2022/03/07 10:01:36;;;;;;;11.73;6.80;;;;;;;;;;5036811;28;20386;-67
2022/03/07 10:04:13;;;;;;;12.97;7.67;;;;;;;;;;5032413;28;20272;-68
2022/03/07 10:06:47;;;;;;;12.13;7.63;;;;;;;;;;5033707;28;20225;-67
2022/03/07 10:09:21;;;;;;;11.53;7.57;;;;;;;;;;5041292;28;20184;-68
2022/03/07 10:11:51;;;;;;;12.30;7.20;;;;;;;;;;5027118;28;20283;-68
2022/03/07 10:14:17;;;;;;;13.20;6.47;;;;;;;;;;5043016;28;20224;-68
2022/03/07 10:16:43;;;;;;;9.83;6.73;;;;;;;;;;5029019;28;20289;-68
2022/03/07 10:19:14;;;;;;;9.43;6.00;;;;;;;;;;5034389;28;20717;-68
2022/03/07 10:21:50;;;;;;;11.57;6.53;;;;;;;;;;5035410;28;20193;-67
2022/03/07 10:24:16;;;;;;;14.63;6.37;;;;;;;;;;5034849;28;20189;-67
2022/03/07 10:26:43;;;;;;;9.33;6.30;;;;;;;;;;5034296;28;20489;-68
2022/03/07 10:29:08;;;;;;;11.90;5.93;;;;;;;;;;5031259;28;20530;-67
2022/03/07 10:31:33;;;;;;;8.03;6.10;;;;;;;;;;5035785;28;20213;-67
2022/03/07 10:34:07;;;;;;;11.80;6.27;;;;;;;;;;5029489;28;20192;-68
2022/03/07 10:36:33;;;;;;;9.67;5.97;;;;;;;;;;5036075;28;20205;-67
2022/03/07 10:38:58;;;;;;;11.60;5.90;;;;;;;;;;5028445;28;20198;-67
2022/03/07 10:41:46;;;;;;;14.00;7.03;;;;;;;;;;5039209;28;20416;-67
2022/03/07 10:44:38;;;;;;;8.90;6.30;;;;;;;;;;5024129;28;20182;-66
2022/03/07 10:47:18;;;;;;;11.93;6.72;;;;;;;;;;5033517;28;20186;-67
2022/03/07 10:49:50;;;;;;;10.47;6.30;;;;;;;;;;5032179;28;20199;-67
2022/03/07 10:52:16;;;;;;;10.37;5.90;;;;;;;;;;5030765;28;20260;-67
2022/03/07 10:54:42;;;;;;;9.37;5.57;;;;;;;;;;5029592;28;20182;-67
2022/03/07 10:57:08;;;;;;;14.00;6.53;;;;;;;;;;5032166;28;20255;-67
2022/03/07 10:59:36;;;;;;;14.27;6.40;;;;;;;;;;5038548;28;20272;-66
2022/03/07 11:02:08;;;;;;;11.07;5.50;;;;;;;;;;5025176;28;20243;-68
2022/03/07 11:04:34;;;;;;;10.13;5.03;;;;;;;;;;5040488;28;20213;-67
2022/03/07 11:06:59;;;;;;;10.73;5.27;;;;;;;;;;5022342;28;20273;-67
2022/03/07 11:09:25;;;;;;;9.37;5.43;;;;;;;;;;5031951;28;20189;-66
2022/03/07 11:11:51;;;;;;;8.47;4.10;;;;;;;;;;5023147;28;20190;-66
2022/03/07 11:14:17;;;;;;;6.60;4.60;;;;;;;;;;5020959;28;20463;-69
2022/03/07 11:16:45;;;;;;;7.50;4.37;;;;;;;;;;5021877;28;20228;-67
2022/03/07 11:19:11;;;;;;;6.97;4.23;;;;;;;;;;5020922;28;20214;-67
2022/03/07 11:21:41;;;;;;;7.63;4.90;;;;;;;;;;5014655;28;20237;-67
2022/03/07 11:24:06;;;;;;;11.30;5.40;;;;;;;;;;5019249;28;20186;-67
2022/03/07 11:26:32;;;;;;;8.70;5.20;;;;;;;;;;5016405;28;20175;-67
2022/03/07 11:28:58;;;;;;;10.17;5.00;;;;;;;;;;5014687;28;20186;-67
2022/03/07 11:31:26;;;;;;;10.10;5.33;;;;;;;;;;5021830;28;20198;-67
2022/03/07 11:33:53;;;;;;;10.20;5.10;;;;;;;;;;5020129;28;20205;-67
2022/03/07 11:36:21;;;;;;;8.48;4.65;;;;;;;;;;5023056;28;20201;-67
2022/03/07 11:39:05;;;;;;;11.47;4.23;;;;;;;;;;5022983;28;20202;-67
2022/03/07 11:41:33;;;;;;;6.20;4.13;;;;;;;;;;5038252;28;20235;-67
2022/03/07 11:44:02;;;;;;;6.23;3.77;;;;;;;;;;5031106;28;20234;-67
2022/03/07 11:46:36;;;;;;;8.52;4.05;;;;;;;;;;5032058;28;20261;-67
2022/03/07 11:49:03;;;;;;;5.27;3.70;;;;;;;;;;5025731;28;20236;-67
2022/03/07 11:51:32;;;;;;;9.43;4.50;;;;;;;;;;5042973;28;20193;-67
2022/03/07 11:53:58;;;;;;;10.50;4.50;;;;;;;;;;5026078;28;20186;-67
2022/03/07 11:56:30;;;;;;;7.95;4.43;;;;;;;;;;5033821;28;20186;-67
2022/03/07 11:58:57;;;;;;;6.63;4.15;;;;;;;;;;5025210;28;20202;-67
2022/03/07 12:01:24;;;;;;;6.35;3.65;;;;;;;;;;5026661;28;20178;-67
2022/03/07 12:03:51;;;;;;;7.20;4.35;;;;;;;;;;5026228;28;20178;-67
2022/03/07 12:06:19;;;;;;;6.10;3.50;;;;;;;;;;5026530;28;20226;-69
2022/03/07 12:08:52;;;;;;;4.85;3.15;;;;;;;;;;5021982;28;20306;-66
2022/03/07 12:11:31;;;;;;;4.88;3.70;;;;;;;;;;5024028;28;20614;-66
2022/03/07 12:14:02;;;;;;;6.18;3.30;;;;;;;;;;5019593;28;20186;-66
2022/03/07 12:16:39;;;;;;;4.70;2.92;;;;;;;;;;5023057;28;20686;-67
2022/03/07 12:19:20;;;;;;;7.20;3.38;;;;;;;;;;5036715;28;20685;-68
2022/03/07 12:21:47;;;;;;;5.85;3.80;;;;;;;;;;5033656;28;20544;-68
2022/03/07 12:24:15;;;;;;;5.50;3.58;;;;;;;;;;5035324;28;20244;-68
2022/03/07 12:26:49;;;;;;;5.95;3.38;;;;;;;;;;5036670;28;20213;-68
2022/03/07 12:29:16;;;;;;;5.85;3.88;;;;;;;;;;5032773;28;20200;-68
2022/03/07 12:31:56;;;;;;;5.13;3.88;;;;;;;;;;5035523;28;20202;-68
2022/03/07 12:34:32;;;;;;;6.28;3.90;;;;;;;;;;5032383;28;20277;-68
2022/03/07 12:37:17;;;;;;;6.35;3.97;;;;;;;;;;5036300;28;20223;-67
2022/03/07 12:39:53;;;;;;;7.75;4.28;;;;;;;;;;5026609;28;20408;-67
2022/03/07 12:42:21;;;;;;;7.88;5.03;;;;;;;;;;5025510;28;20196;-67
2022/03/07 12:44:47;;;;;;;6.45;3.90;;;;;;;;;;5026259;28;20709;-67
2022/03/07 12:47:13;;;;;;;4.90;3.65;;;;;;;;;;5027297;28;20201;-67
2022/03/07 12:49:40;;;;;;;5.70;3.95;;;;;;;;;;5025719;28;20186;-67
2022/03/07 12:52:08;;;;;;;8.50;4.40;;;;;;;;;;5028940;28;20194;-67
2022/03/07 12:54:36;;;;;;;6.68;4.40;;;;;;;;;;5024693;28;20518;-67
2022/03/07 12:57:02;;;;;;;6.30;4.35;;;;;;;;;;5024532;28;20281;-67
2022/03/07 12:59:31;;;;;;;6.22;4.22;;;;;;;;;;5022452;28;20208;-67
2022/03/07 13:01:57;;;;;;;6.93;4.22;;;;;;;;;;5022261;28;20225;-66
2022/03/07 13:04:25;;;;;;;10.18;4.97;;;;;;;;;;5023771;28;20214;-65
2022/03/07 13:06:52;;;;;;;7.28;4.25;;;;;;;;;;5027740;28;20237;-68
2022/03/07 13:09:19;;;;;;;6.40;4.38;;;;;;;;;;5027659;28;20301;-67
2022/03/07 13:11:47;;;;;;;9.27;5.43;;;;;;;;;;5022988;28;20192;-67
2022/03/07 13:14:28;;;;;;;7.38;5.10;;;;;;;;;;5025447;28;20599;-67
2022/03/07 13:16:54;;;;;;;9.27;4.90;;;;;;;;;;5023929;28;20261;-68
2022/03/07 13:19:21;;;;;;;5.97;4.60;;;;;;;;;;5019969;28;20206;-68
2022/03/07 13:21:49;;;;;;;6.30;3.97;;;;;;;;;;5037332;28;20175;-67
2022/03/07 13:24:20;;;;;;;5.15;3.45;;;;;;;;;;5024315;28;20701;-68
2022/03/07 13:27:10;;;;;;;8.63;4.40;;;;;;;;;;5023430;28;20321;-67
2022/03/07 13:29:38;;;;;;;7.00;4.40;;;;;;;;;;5022121;28;20232;-67
2022/03/07 13:32:10;;;;;;;8.13;4.30;;;;;;;;;;5023949;28;20293;-68
2022/03/07 13:34:56;;;;;;;4.93;3.83;;;;;;;;;;5025075;28;20185;-67
2022/03/07 13:37:24;;;;;;;7.80;3.60;;;;;;;;;;5034225;28;20391;-67
2022/03/07 13:40:08;;;;;;;6.75;4.10;;;;;;;;;;5028711;28;20702;-67
2022/03/07 13:42:45;;;;;;;6.18;3.95;;;;;;;;;;5033231;28;20247;-68
2022/03/07 13:45:23;;;;;;;8.50;3.75;;;;;;;;;;5031798;28;20181;-67
2022/03/07 13:48:01;;;;;;;5.35;3.70;;;;;;;;;;5027998;28;20197;-66
2022/03/07 13:50:29;;;;;;;5.75;3.47;;;;;;;;;;5036987;28;20197;-66
2022/03/07 13:53:25;;;;;;;7.00;3.67;;;;;;;;;;5027185;28;20278;-67
2022/03/07 13:55:55;;;;;;;4.95;3.75;;;;;;;;;;5034859;28;20202;-67
2022/03/07 13:58:26;;;;;;;5.72;3.60;;;;;;;;;;5027421;28;20529;-67
2022/03/07 14:01:12;;;;;;;5.93;3.67;;;;;;;;;;5040853;28;20193;-67
2022/03/07 14:03:37;;;;;;;4.80;3.08;;;;;;;;;;5028486;28;20216;-67
2022/03/07 14:06:05;;;;;;;5.75;3.05;;;;;;;;;;5035737;28;20299;-67
2022/03/07 14:08:42;;;;;;;6.35;3.10;;;;;;;;;;5030931;28;20170;-68
2022/03/07 14:11:13;;;;;;;6.68;2.95;;;;;;;;;;5032111;28;20534;-67
2022/03/07 14:13:40;;;;;;;7.03;3.03;;;;;;;;;;5030583;28;20561;-69
2022/03/07 14:16:07;;;;;;;4.57;3.20;;;;;;;;;;5031822;28;20265;-67
2022/03/07 14:18:33;;;;;;;4.03;2.88;;;;;;;;;;5034758;28;20213;-67
2022/03/07 14:20:59;;;;;;;3.38;2.10;;;;;;;;;;5025921;28;20217;-67
2022/03/07 14:23:24;;;;;;;3.90;2.30;;;;;;;;;;5040061;28;20210;-67
2022/03/07 14:25:50;;;;;;;2.37;1.93;;;;;;;;;;5026601;28;20190;-67
2022/03/07 14:28:15;;;;;;;4.68;2.30;;;;;;;;;;5040581;28;20586;-67
2022/03/07 14:30:40;;;;;;;4.75;2.30;;;;;;;;;;5030399;28;20201;-67